Time;durP1;ratioP1;P1;durP2;ratioP2;P2;SDS_P1;SDS_P2;PMS_P1;PMS_P2;Temp;Humidity;BMP_temperature;BMP_pressure;BME280_temperature;BME280_humidity;BME280_pressure;Samples;Min_cycle;Max_cycle;Signal;HPM_P1;HPM_P2
2021/06/20 00:00:36;;;;;;;15.85;12.53;;;;;;;23.23;62.40;100671.18;1756578;80;25777;-77
2021/06/20 00:03:06;;;;;;;12.55;10.72;;;;;;;23.19;62.38;100667.34;1771818;79;25854;-76
2021/06/20 00:05:41;;;;;;;15.58;11.05;;;;;;;23.16;62.53;100676.63;1746600;80;25910;-76
2021/06/20 00:08:08;;;;;;;13.98;12.58;;;;;;;23.08;62.65;100672.48;1719719;80;26440;-76
2021/06/20 00:10:38;;;;;;;14.45;12.95;;;;;;;23.01;62.91;100674.63;1755518;80;25922;-76
2021/06/20 00:13:06;;;;;;;15.18;12.33;;;;;;;22.98;63.27;100673.81;1773588;79;26201;-75
2021/06/20 00:15:35;;;;;;;17.75;12.20;;;;;;;22.92;63.29;100677.05;1767454;80;28093;-76
2021/06/20 00:18:03;;;;;;;13.70;12.10;;;;;;;22.86;63.18;100679.48;1738036;80;26239;-75
2021/06/20 00:20:35;;;;;;;14.20;11.25;;;;;;;22.78;63.31;100676.43;1752804;80;25829;-76
2021/06/20 00:23:02;;;;;;;14.38;11.65;;;;;;;22.72;63.72;100680.23;1747981;80;26519;-76
2021/06/20 00:25:29;;;;;;;15.72;12.70;;;;;;;22.65;63.99;100670.90;1770846;80;25728;-76
2021/06/20 00:27:57;;;;;;;13.50;11.85;;;;;;;22.64;64.22;100673.91;1721940;80;27492;-76
2021/06/20 00:30:27;;;;;;;14.63;11.65;;;;;;;22.61;64.37;100678.52;1745448;80;26562;-76
2021/06/20 00:32:56;;;;;;;15.55;12.15;;;;;;;22.56;64.62;100673.81;1747671;80;25868;-76
2021/06/20 00:35:23;;;;;;;13.65;11.90;;;;;;;22.52;64.57;100675.42;1767982;80;26499;-76
2021/06/20 00:37:50;;;;;;;14.05;10.80;;;;;;;22.47;64.81;100675.95;1718003;80;25897;-76
2021/06/20 00:40:19;;;;;;;13.10;11.57;;;;;;;22.43;64.93;100678.92;1750839;80;28340;-75
2021/06/20 00:42:47;;;;;;;11.97;10.65;;;;;;;22.38;64.75;100677.52;1751700;80;25765;-76
2021/06/20 00:45:19;;;;;;;12.00;10.72;;;;;;;22.32;64.78;100677.20;1746639;80;25921;-76
2021/06/20 00:47:46;;;;;;;13.03;10.90;;;;;;;22.25;64.69;100674.16;1722627;80;25790;-75
2021/06/20 00:50:15;;;;;;;14.87;11.85;;;;;;;22.20;64.98;100667.29;1743778;80;26540;-76
2021/06/20 00:52:42;;;;;;;12.40;11.12;;;;;;;22.15;65.11;100672.70;1795842;78;27481;-75
2021/06/20 00:55:12;;;;;;;13.65;12.33;;;;;;;22.09;65.23;100673.73;1740624;79;26511;-76
2021/06/20 00:57:39;;;;;;;16.12;12.78;;;;;;;22.06;65.32;100681.10;1783495;79;25327;-76
2021/06/20 01:00:11;;;;;;;12.82;11.53;;;;;;;22.01;65.49;100681.58;1760007;79;26459;-75
2021/06/20 01:02:38;;;;;;;13.03;11.75;;;;;;;21.98;65.69;100678.82;1799559;78;25832;-75
2021/06/20 01:05:08;;;;;;;13.00;11.65;;;;;;;21.95;65.81;100679.89;1745833;81;27493;-76
2021/06/20 01:07:36;;;;;;;12.10;10.90;;;;;;;21.92;65.92;100675.77;1743132;79;25883;-76
2021/06/20 01:10:07;;;;;;;12.98;11.60;;;;;;;21.89;66.00;100674.12;1705601;82;25860;-76
2021/06/20 01:12:35;;;;;;;14.68;11.93;;;;;;;21.87;66.10;100672.19;1757881;80;25800;-76
2021/06/20 01:15:08;;;;;;;14.20;11.93;;;;;;;21.80;66.14;100668.28;1736247;81;25778;-76
2021/06/20 01:17:36;;;;;;;13.65;11.20;;;;;;;21.76;66.18;100662.23;1723759;80;27528;-76
2021/06/20 01:20:08;;;;;;;13.08;11.73;;;;;;;21.70;66.10;100657.81;1696796;81;26540;-76
2021/06/20 01:22:38;;;;;;;14.80;11.55;;;;;;;21.64;66.08;100658.29;1749534;81;26693;-76
2021/06/20 01:25:10;;;;;;;15.00;11.83;;;;;;;21.59;66.43;100646.53;1749178;81;26489;-76
2021/06/20 01:27:49;;;;;;;16.62;12.85;;;;;;;21.56;66.70;100649.75;1738168;81;26015;-75
2021/06/20 01:30:22;;;;;;;14.43;12.75;;;;;;;21.51;66.83;100636.36;1701245;81;27335;-76
2021/06/20 01:32:49;;;;;;;17.00;13.53;;;;;;;21.45;66.82;100640.13;1755632;81;25879;-76
2021/06/20 01:35:17;;;;;;;14.35;12.85;;;;;;;21.40;66.80;100640.63;1707106;81;26285;-75
2021/06/20 01:37:45;;;;;;;19.27;13.38;;;;;;;21.37;66.90;100637.03;1771984;79;26579;-76
2021/06/20 01:40:15;;;;;;;18.12;13.95;;;;;;;21.33;67.01;100636.73;1738103;81;25833;-76
2021/06/20 01:42:43;;;;;;;17.77;14.10;;;;;;;21.30;67.12;100639.12;1746801;81;27014;-75
2021/06/20 01:45:14;;;;;;;18.70;14.15;;;;;;;21.25;67.30;100637.73;1739715;81;25882;-76
2021/06/20 01:47:41;;;;;;;18.17;13.80;;;;;;;21.19;67.21;100636.03;1739554;81;25336;-76
2021/06/20 01:50:13;;;;;;;17.48;13.93;;;;;;;21.12;67.30;100643.56;1675859;82;25900;-76
2021/06/20 01:52:41;;;;;;;14.85;13.22;;;;;;;21.10;67.62;100641.64;1702530;81;25992;-75
2021/06/20 01:55:11;;;;;;;14.03;12.20;;;;;;;21.05;67.52;100639.67;1733573;80;28041;-75
2021/06/20 01:57:40;;;;;;;14.93;12.98;;;;;;;21.01;67.39;100634.42;1726861;81;25897;-76
2021/06/20 02:00:15;;;;;;;15.13;13.18;;;;;;;20.96;67.54;100637.60;1705018;81;25926;-75
2021/06/20 02:02:43;;;;;;;15.10;13.15;;;;;;;20.90;67.65;100642.17;1748548;81;26549;-75
2021/06/20 02:05:12;;;;;;;13.98;12.43;;;;;;;20.85;67.95;100631.20;1745195;81;25854;-76
2021/06/20 02:07:39;;;;;;;15.00;12.90;;;;;;;20.87;68.44;100635.06;1750502;81;27509;-76
2021/06/20 02:10:12;;;;;;;14.87;13.38;;;;;;;20.88;68.61;100637.52;1719216;81;25938;-76
2021/06/20 02:12:39;;;;;;;14.55;13.10;;;;;;;20.90;68.67;100637.26;1729307;81;25739;-76
2021/06/20 02:15:10;;;;;;;15.75;14.15;;;;;;;20.86;68.74;100634.77;1704976;81;26003;-75
2021/06/20 02:17:38;;;;;;;15.72;14.07;;;;;;;20.86;68.84;100630.67;1724041;82;25762;-75
2021/06/20 02:20:10;;;;;;;14.10;12.68;;;;;;;20.83;68.94;100631.20;1723317;81;27647;-76
2021/06/20 02:22:41;;;;;;;16.52;14.78;;;;;;;20.77;69.03;100637.10;1747187;81;25753;-75
2021/06/20 02:25:12;;;;;;;15.68;13.72;;;;;;;20.77;69.11;100637.10;1734462;80;26429;-76
2021/06/20 02:27:40;;;;;;;17.92;14.10;;;;;;;20.75;69.30;100636.00;1725784;81;25830;-76
2021/06/20 02:30:10;;;;;;;15.68;13.30;;;;;;;20.73;69.24;100646.84;1704273;80;25835;-76
2021/06/20 02:32:38;;;;;;;14.30;12.90;;;;;;;20.68;69.07;100643.52;1727907;81;27489;-75
2021/06/20 02:35:07;;;;;;;14.63;13.10;;;;;;;20.64;68.94;100651.08;1698359;80;26051;-76
2021/06/20 02:37:34;;;;;;;17.60;13.70;;;;;;;20.61;69.10;100647.52;1710811;79;25770;-76
2021/06/20 02:40:03;;;;;;;14.95;13.08;;;;;;;20.60;69.13;100648.57;1731331;81;26401;-76
2021/06/20 02:42:30;;;;;;;15.00;13.50;;;;;;;20.59;69.27;100653.75;1765989;79;26006;-76
2021/06/20 02:44:57;;;;;;;16.00;14.18;;;;;;;20.55;69.46;100659.41;1722022;79;27567;-75
2021/06/20 02:47:24;;;;;;;17.75;14.98;;;;;;;20.53;69.50;100662.92;1706057;81;25528;-76
2021/06/20 02:49:52;;;;;;;20.48;15.00;;;;;;;20.53;69.86;100652.03;1716758;79;26589;-75
2021/06/20 02:52:19;;;;;;;16.60;15.00;;;;;;;20.56;69.97;100646.91;1753416;79;25813;-76
2021/06/20 02:54:50;;;;;;;19.23;14.40;;;;;;;20.54;70.05;100640.05;1737892;81;25847;-76
2021/06/20 02:57:24;;;;;;;19.07;14.53;;;;;;;20.56;70.18;100638.73;1695990;83;28312;-76
2021/06/20 02:59:53;;;;;;;18.70;14.18;;;;;;;20.57;70.09;100645.01;1716251;82;25873;-75
2021/06/20 03:02:21;;;;;;;20.77;14.55;;;;;;;20.57;70.25;100644.45;1718349;82;26442;-75
2021/06/20 03:04:53;;;;;;;15.53;13.72;;;;;;;20.59;70.25;100655.11;1678753;82;25882;-76
2021/06/20 03:07:21;;;;;;;15.32;13.25;;;;;;;20.63;70.53;100653.00;1673476;83;25802;-76
2021/06/20 03:09:49;;;;;;;15.63;13.20;;;;;;;20.69;70.79;100659.32;1700788;81;27056;-75
2021/06/20 03:12:17;;;;;;;14.10;12.80;;;;;;;20.71;71.04;100656.64;1708474;82;25820;-75
2021/06/20 03:14:46;;;;;;;14.38;12.28;;;;;;;20.78;71.08;100657.26;1712686;82;26577;-75
2021/06/20 03:17:14;;;;;;;13.62;12.13;;;;;;;20.86;71.06;100660.09;1703780;82;25844;-76
2021/06/20 03:19:43;;;;;;;14.23;12.80;;;;;;;20.92;71.13;100662.33;1714247;81;25845;-76
2021/06/20 03:22:10;;;;;;;17.98;12.15;;;;;;;20.97;71.35;100665.14;1695602;81;29625;-76
2021/06/20 03:24:41;;;;;;;17.52;13.18;;;;;;;21.02;71.20;100665.20;1672684;82;25912;-75
2021/06/20 03:27:09;;;;;;;14.73;13.22;;;;;;;21.09;71.16;100662.59;1686566;82;26116;-76
2021/06/20 03:29:36;;;;;;;15.43;12.47;;;;;;;21.19;71.04;100661.34;1731271;80;26497;-76
2021/06/20 03:32:05;;;;;;;15.23;12.65;;;;;;;21.27;71.00;100657.36;1774239;80;26418;-76
2021/06/20 03:34:32;;;;;;;15.80;12.50;;;;;;;21.36;70.93;100654.48;1725156;80;27500;-76
2021/06/20 03:37:01;;;;;;;14.03;12.55;;;;;;;21.44;70.81;100654.84;1759384;80;26691;-76
2021/06/20 03:39:28;;;;;;;13.72;12.20;;;;;;;21.53;70.63;100664.18;1742465;80;25316;-75
2021/06/20 03:41:57;;;;;;;12.93;11.78;;;;;;;21.56;70.36;100660.13;1772978;80;25845;-76
2021/06/20 03:44:24;;;;;;;13.48;11.95;;;;;;;21.61;70.44;100655.27;1721309;80;25773;-76
2021/06/20 03:46:51;;;;;;;14.90;11.60;;;;;;;21.61;70.27;100653.91;1752144;80;27448;-76
2021/06/20 03:49:19;;;;;;;13.95;12.55;;;;;;;21.63;70.39;100652.58;1772549;79;26012;-76
2021/06/20 03:51:46;;;;;;;13.93;12.25;;;;;;;21.71;70.44;100655.36;1770739;80;25926;-76
2021/06/20 03:54:13;;;;;;;12.82;11.53;;;;;;;21.74;70.30;100658.41;1753097;80;25830;-76
2021/06/20 03:56:40;;;;;;;13.28;11.97;;;;;;;21.79;70.24;100648.09;1751258;80;25857;-76
2021/06/20 03:59:09;;;;;;;13.22;11.83;;;;;;;21.83;70.25;100647.35;1725940;80;27531;-76
2021/06/20 04:01:37;;;;;;;16.10;12.68;;;;;;;21.88;69.97;100654.73;1766982;80;26010;-76
2021/06/20 04:04:04;;;;;;;12.88;11.48;;;;;;;21.91;69.96;100659.67;1771312;79;25938;-76
2021/06/20 04:06:31;;;;;;;13.62;12.13;;;;;;;21.97;69.97;100655.91;1746980;80;26586;-76
2021/06/20 04:08:58;;;;;;;12.20;11.10;;;;;;;22.00;69.80;100663.05;1746696;80;25814;-76
2021/06/20 04:11:30;;;;;;;11.70;10.60;;;;;;;22.08;69.80;100660.37;1737347;81;28212;-76
2021/06/20 04:13:54;;;;;;;13.58;11.97;;;;;;;22.14;69.66;100653.33;1689447;81;26061;-76
2021/06/20 04:16:22;;;;;;;14.98;11.15;;;;;;;22.22;69.54;100657.47;1702437;81;25837;-75
2021/06/20 04:18:49;;;;;;;12.28;10.98;;;;;;;22.27;69.56;100660.24;1683983;83;25891;-76
2021/06/20 04:21:16;;;;;;;17.40;12.10;;;;;;;22.36;69.40;100662.77;1712116;82;26546;-76
2021/06/20 04:23:45;;;;;;;15.20;11.38;;;;;;;22.48;69.38;100655.73;1693018;81;28558;-76
2021/06/20 04:26:12;;;;;;;16.00;11.68;;;;;;;22.53;69.13;100648.95;1680765;83;25776;-76
2021/06/20 04:28:40;;;;;;;13.18;10.95;;;;;;;22.53;68.70;100647.59;1702901;83;26563;-76
2021/06/20 04:31:08;;;;;;;12.30;11.00;;;;;;;22.54;68.65;100643.79;1720150;80;25975;-76
2021/06/20 04:33:35;;;;;;;11.97;10.68;;;;;;;22.59;68.42;100648.75;1750813;80;25778;-76
2021/06/20 04:36:02;;;;;;;12.80;10.35;;;;;;;22.60;68.43;100640.03;1767636;79;28194;-76
2021/06/20 04:38:29;;;;;;;11.18;10.10;;;;;;;22.65;68.29;100644.13;1765087;80;25779;-76
2021/06/20 04:41:02;;;;;;;11.95;10.13;;;;;;;22.74;68.53;100642.02;1725877;80;25950;-75
2021/06/20 04:46:12;;;;;;;14.87;10.53;;;;;;;22.92;67.91;100631.17;1768489;80;25904;-76
2021/06/20 04:48:39;;;;;;;10.95;9.90;;;;;;;22.96;67.32;100634.48;1761378;80;29175;-76
2021/06/20 04:51:06;;;;;;;10.75;9.70;;;;;;;23.03;67.51;100633.66;1728802;80;25754;-75
2021/06/20 04:53:33;;;;;;;15.35;10.65;;;;;;;23.14;67.59;100632.36;1766455;79;25835;-76
2021/06/20 04:56:00;;;;;;;15.43;9.73;;;;;;;23.24;67.20;100630.47;1794753;78;26182;-75
2021/06/20 04:58:27;;;;;;;11.97;9.03;;;;;;;23.32;66.74;100638.14;1794540;78;25975;-75
2021/06/20 05:00:55;;;;;;;11.55;8.75;;;;;;;23.37;66.51;100628.62;1752470;79;28124;-75
2021/06/20 05:03:22;;;;;;;9.20;8.20;;;;;;;23.45;66.26;100639.03;1761330;78;25819;-75
2021/06/20 05:05:49;;;;;;;9.23;8.28;;;;;;;23.57;66.24;100644.23;1798241;78;25781;-74
2021/06/20 05:08:16;;;;;;;10.63;7.72;;;;;;;23.67;65.33;100639.59;1798798;78;25864;-75
2021/06/20 05:10:43;;;;;;;11.85;8.60;;;;;;;23.72;65.41;100638.24;1749333;78;25957;-76
2021/06/20 05:13:10;;;;;;;9.43;7.40;;;;;;;23.80;65.14;100638.80;1767811;78;27544;-76
2021/06/20 05:15:37;;;;;;;8.45;7.60;;;;;;;23.85;64.83;100633.31;1792865;78;26689;-76
2021/06/20 05:18:05;;;;;;;12.15;8.50;;;;;;;23.93;64.37;100629.48;1793293;78;25354;-76
2021/06/20 05:20:32;;;;;;;12.68;8.03;;;;;;;24.00;64.28;100622.38;1746317;78;26360;-75
2021/06/20 05:22:59;;;;;;;14.25;9.38;;;;;;;24.05;63.65;100610.92;1773361;79;25750;-75
2021/06/20 05:25:26;;;;;;;7.65;6.95;;;;;;;24.08;63.35;100625.41;1766650;78;28311;-75
2021/06/20 05:27:53;;;;;;;7.15;6.20;;;;;;;24.12;63.30;100631.97;1812545;78;25812;-75
2021/06/20 05:30:20;;;;;;;6.95;6.25;;;;;;;24.15;62.27;100634.71;1751449;78;25835;-76
2021/06/20 05:32:49;;;;;;;9.13;6.00;;;;;;;24.20;61.97;100645.12;1771845;79;26472;-76
2021/06/20 05:35:17;;;;;;;9.28;6.45;;;;;;;24.25;62.07;100642.36;1795866;78;25853;-75
2021/06/20 05:37:44;;;;;;;7.50;6.10;;;;;;;24.32;61.49;100644.82;1801677;78;27558;-76
2021/06/20 05:40:12;;;;;;;8.20;6.22;;;;;;;24.38;61.12;100642.34;1746041;78;25849;-76
2021/06/20 05:42:40;;;;;;;7.08;6.20;;;;;;;24.41;61.06;100636.33;1775796;79;25825;-75
2021/06/20 05:45:09;;;;;;;7.17;5.72;;;;;;;24.46;60.69;100645.34;1800192;78;26112;-76
2021/06/20 05:47:36;;;;;;;6.80;6.00;;;;;;;24.50;60.37;100630.56;1794151;78;25811;-75
2021/06/20 05:50:04;;;;;;;6.28;5.40;;;;;;;24.55;60.33;100642.86;1752696;78;27535;-75
2021/06/20 05:52:31;;;;;;;7.12;5.55;;;;;;;24.60;60.47;100637.37;1772142;78;26751;-76
2021/06/20 05:54:59;;;;;;;5.92;5.33;;;;;;;24.69;60.52;100630.78;1791923;78;25773;-75
2021/06/20 05:57:26;;;;;;;6.65;5.72;;;;;;;24.78;59.72;100634.63;1804612;78;26530;-76
2021/06/20 05:59:53;;;;;;;6.95;5.50;;;;;;;24.82;59.80;100630.22;1787073;78;25796;-76
2021/06/20 06:02:20;;;;;;;8.40;6.05;;;;;;;24.93;59.82;100629.91;1758583;78;27460;-76
2021/06/20 06:04:47;;;;;;;7.20;5.75;;;;;;;25.01;59.92;100625.75;1804217;78;25932;-76
2021/06/20 06:07:14;;;;;;;8.03;5.72;;;;;;;25.10;59.85;100634.50;1797982;78;25836;-76
2021/06/20 06:09:41;;;;;;;8.55;6.05;;;;;;;25.18;59.35;100643.50;1743506;79;25885;-76
2021/06/20 06:12:09;;;;;;;5.70;5.30;;;;;;;25.26;58.94;100644.27;1756514;79;25900;-76
2021/06/20 06:14:36;;;;;;;6.58;5.53;;;;;;;25.30;58.50;100651.37;1801476;78;28184;-76
2021/06/20 06:17:03;;;;;;;8.55;5.30;;;;;;;25.38;58.35;100652.17;1793750;78;25961;-76
2021/06/20 06:19:30;;;;;;;10.10;6.42;;;;;;;25.42;57.84;100656.56;1742696;79;25843;-76
2021/06/20 06:21:57;;;;;;;8.03;5.85;;;;;;;25.40;57.84;100656.82;1771714;78;25923;-76
2021/06/20 06:24:24;;;;;;;6.17;5.58;;;;;;;25.45;58.04;100658.17;1799662;78;25821;-76
2021/06/20 06:26:51;;;;;;;5.53;5.03;;;;;;;25.49;58.01;100663.36;1781205;78;27610;-75
2021/06/20 06:29:18;;;;;;;5.28;4.78;;;;;;;25.53;58.25;100657.60;1747837;79;25948;-76
2021/06/20 06:31:45;;;;;;;8.45;5.25;;;;;;;25.61;57.44;100656.99;1775018;78;25843;-76
2021/06/20 06:34:13;;;;;;;5.37;4.87;;;;;;;25.66;57.34;100654.77;1785880;78;25929;-76
2021/06/20 06:36:40;;;;;;;7.30;5.25;;;;;;;25.74;57.60;100663.77;1785729;79;25302;-76
2021/06/20 06:39:07;;;;;;;6.05;5.33;;;;;;;25.86;57.52;100665.59;1756669;78;27701;-76
2021/06/20 06:41:34;;;;;;;6.83;5.00;;;;;;;25.94;57.16;100671.28;1745254;78;25864;-75
2021/06/20 06:44:01;;;;;;;5.65;4.70;;;;;;;26.04;57.16;100674.52;1773362;78;26140;-76
2021/06/20 06:46:28;;;;;;;6.22;5.22;;;;;;;26.10;57.00;100675.31;1798366;78;25785;-75
2021/06/20 06:48:55;;;;;;;6.60;5.05;;;;;;;26.17;56.86;100671.15;1734040;79;25764;-75
2021/06/20 06:51:22;;;;;;;5.35;4.85;;;;;;;26.27;57.27;100669.67;1756066;78;28073;-76
2021/06/20 06:53:49;;;;;;;6.45;4.87;;;;;;;26.31;56.39;100670.73;1763708;79;25904;-76
2021/06/20 06:56:16;;;;;;;5.40;4.20;;;;;;;26.39;56.28;100670.68;1795153;78;25841;-76
2021/06/20 06:58:43;;;;;;;6.10;4.58;;;;;;;26.47;56.83;100670.87;1739479;79;26246;-75
2021/06/20 07:01:10;;;;;;;5.70;4.47;;;;;;;26.54;56.23;100665.83;1767030;79;26582;-76
2021/06/20 07:03:37;;;;;;;6.08;4.72;;;;;;;26.63;56.42;100664.64;1788143;78;28223;-76
2021/06/20 07:06:04;;;;;;;5.12;4.37;;;;;;;26.71;56.48;100661.25;1778738;78;26349;-75
2021/06/20 07:08:31;;;;;;;4.67;4.15;;;;;;;26.80;55.96;100662.28;1762977;78;26450;-76
2021/06/20 07:10:59;;;;;;;5.20;4.70;;;;;;;26.83;55.09;100658.14;1713260;81;26509;-75
2021/06/20 07:13:26;;;;;;;5.20;4.37;;;;;;;26.90;54.99;100655.87;1708640;81;26063;-74
2021/06/20 07:15:53;;;;;;;7.70;5.15;;;;;;;26.94;54.35;100655.54;1722553;81;28141;-76
2021/06/20 07:18:20;;;;;;;7.83;4.62;;;;;;;26.96;53.90;100665.69;1714447;81;25907;-76
2021/06/20 07:20:48;;;;;;;6.05;4.55;;;;;;;27.00;53.63;100658.48;1687295;81;25893;-76
2021/06/20 07:23:15;;;;;;;4.22;3.72;;;;;;;27.05;53.03;100651.56;1729322;80;25839;-76
2021/06/20 07:25:42;;;;;;;7.90;4.80;;;;;;;27.07;53.26;100655.66;1710289;81;25939;-76
2021/06/20 07:28:09;;;;;;;4.75;4.25;;;;;;;27.11;52.30;100653.13;1723419;80;27505;-76
2021/06/20 07:30:36;;;;;;;4.53;4.12;;;;;;;27.16;52.71;100644.82;1713798;81;25834;-76
2021/06/20 07:33:04;;;;;;;6.03;3.95;;;;;;;27.21;52.71;100642.81;1718591;82;25882;-76
2021/06/20 07:35:31;;;;;;;5.92;4.28;;;;;;;27.27;52.16;100640.25;1722044;81;25867;-76
2021/06/20 07:37:59;;;;;;;5.67;4.22;;;;;;;27.30;52.23;100630.04;1705171;80;25722;-77
2021/06/20 07:40:26;;;;;;;5.30;4.40;;;;;;;27.38;52.22;100635.45;1682424;83;27656;-76
2021/06/20 07:42:53;;;;;;;5.85;4.22;;;;;;;27.44;52.34;100635.63;1733300;81;25360;-75
2021/06/20 07:45:20;;;;;;;6.05;4.70;;;;;;;27.50;52.49;100635.84;1728822;82;25814;-77
2021/06/20 07:47:47;;;;;;;5.55;4.60;;;;;;;27.57;51.90;100631.31;1681515;81;25845;-75
2021/06/20 07:50:14;;;;;;;6.45;4.22;;;;;;;27.62;52.05;100630.70;1690476;81;25360;-76
2021/06/20 07:52:42;;;;;;;5.97;4.17;;;;;;;27.68;51.82;100625.92;1700010;81;27581;-76
2021/06/20 07:55:10;;;;;;;4.78;4.28;;;;;;;27.69;51.73;100635.28;1708892;81;25862;-76
2021/06/20 07:57:37;;;;;;;5.42;3.92;;;;;;;27.69;51.42;100635.28;1728272;81;26585;-76
2021/06/20 08:00:08;;;;;;;4.83;4.00;;;;;;;27.74;51.10;100639.30;1698394;81;26371;-76
2021/06/20 08:02:38;;;;;;;8.93;3.70;;;;;;;27.75;50.86;100639.58;1738219;81;25920;-75
2021/06/20 08:05:07;;;;;;;4.35;3.92;;;;;;;27.79;50.09;100631.53;1725281;81;27640;-76
2021/06/20 08:07:34;;;;;;;5.80;4.95;;;;;;;27.84;50.11;100625.95;1720958;81;25859;-76
2021/06/20 08:10:02;;;;;;;6.12;4.53;;;;;;;27.93;50.34;100627.70;1720260;81;25811;-76
2021/06/20 08:12:31;;;;;;;8.05;6.72;;;;;;;28.02;49.38;100621.81;1746242;81;26673;-77
2021/06/20 08:14:59;;;;;;;8.38;4.47;;;;;;;28.07;49.59;100620.91;1715665;80;26061;-77
2021/06/20 08:17:26;;;;;;;5.22;4.42;;;;;;;28.12;50.02;100616.70;1749763;80;27583;-76
2021/06/20 08:19:53;;;;;;;6.70;4.22;;;;;;;28.18;49.96;100620.99;1701996;80;26609;-76
2021/06/20 08:22:20;;;;;;;4.58;4.05;;;;;;;28.22;50.69;100626.15;1742061;80;26316;-76
2021/06/20 08:24:49;;;;;;;4.65;4.25;;;;;;;28.25;50.34;100622.22;1694692;81;26107;-76
2021/06/20 08:27:17;;;;;;;4.60;4.20;;;;;;;28.22;50.43;100618.71;1717478;81;25787;-76
2021/06/20 08:29:44;;;;;;;6.50;4.15;;;;;;;28.24;50.59;100621.98;1723405;81;27530;-76
2021/06/20 08:32:12;;;;;;;4.28;3.95;;;;;;;28.32;50.45;100631.47;1764337;79;25795;-76
2021/06/20 08:34:39;;;;;;;5.00;4.42;;;;;;;28.34;49.91;100633.36;1716203;81;25864;-76
2021/06/20 08:37:06;;;;;;;4.47;3.90;;;;;;;28.34;48.77;100641.63;1712966;81;25941;-76
2021/06/20 08:39:33;;;;;;;4.15;3.85;;;;;;;28.34;48.89;100636.11;1673961;82;25778;-77
2021/06/20 08:42:00;;;;;;;5.45;3.95;;;;;;;28.36;48.76;100644.89;1765218;79;28143;-76
2021/06/20 08:44:32;;;;;;;10.45;7.47;;;;;;;28.42;48.76;100639.54;1752506;79;26536;-76
2021/06/20 08:47:05;;;;;;;6.55;4.80;;;;;;;28.47;48.70;100636.70;1734535;81;26575;-76
2021/06/20 08:49:34;;;;;;;4.20;3.83;;;;;;;28.51;48.77;100636.34;1708173;82;26313;-77
2021/06/20 08:52:23;;;;;;;5.40;3.95;;;;;;;28.55;48.87;100633.81;1738585;81;26647;-76
2021/06/20 08:55:07;;;;;;;5.00;3.80;;;;;;;28.63;49.44;100633.96;1728579;81;27590;-76
2021/06/20 08:57:37;;;;;;;4.62;4.22;;;;;;;28.66;48.59;100637.46;1722275;81;26065;-77
2021/06/20 09:00:08;;;;;;;7.12;4.47;;;;;;;28.69;48.57;100642.94;1724014;81;25829;-77
2021/06/20 09:02:36;;;;;;;4.70;4.12;;;;;;;28.76;48.35;100639.22;1719584;81;26486;-76
2021/06/20 09:05:08;;;;;;;5.72;3.80;;;;;;;28.83;48.66;100641.81;1722011;81;26539;-77
2021/06/20 09:07:37;;;;;;;4.85;3.70;;;;;;;28.86;48.49;100642.59;1724035;81;27478;-76
2021/06/20 09:10:18;;;;;;;3.72;3.37;;;;;;;28.94;48.27;100643.23;1688610;83;25922;-76
2021/06/20 09:12:56;;;;;;;5.17;3.42;;;;;;;28.97;47.59;100650.09;1720897;82;26488;-77
2021/06/20 09:15:30;;;;;;;4.42;3.42;;;;;;;29.00;47.47;100639.80;1724469;81;25755;-76
2021/06/20 09:18:02;;;;;;;3.40;3.12;;;;;;;29.03;46.67;100635.62;1717432;82;25781;-77
2021/06/20 09:20:44;;;;;;;3.70;3.15;;;;;;;29.07;46.40;100623.66;1737004;81;27315;-76
2021/06/20 09:23:17;;;;;;;3.75;3.45;;;;;;;29.15;47.24;100633.17;1695314;84;27557;-76
2021/06/20 09:25:52;;;;;;;4.30;3.90;;;;;;;29.18;47.70;100636.15;1685624;84;25856;-76
2021/06/20 09:28:19;;;;;;;5.20;4.20;;;;;;;29.28;47.60;100638.67;1692237;81;26587;-76
2021/06/20 09:30:51;;;;;;;4.42;3.33;;;;;;;29.31;46.38;100631.73;1656565;83;25851;-76
2021/06/20 09:33:21;;;;;;;5.15;3.35;;;;;;;29.31;46.36;100634.48;1721747;82;27610;-76
2021/06/20 09:35:53;;;;;;;3.67;3.35;;;;;;;29.32;46.11;100631.41;1690742;83;25896;-77
2021/06/20 09:38:24;;;;;;;5.75;4.17;;;;;;;29.34;45.82;100629.74;1767061;80;25790;-77
2021/06/20 09:41:13;;;;;;;4.33;3.95;;;;;;;29.41;46.23;100632.88;1700799;82;25822;-77
2021/06/20 09:43:55;;;;;;;6.42;4.33;;;;;;;29.48;45.58;100624.44;1705639;83;25868;-76
2021/06/20 09:46:23;;;;;;;5.62;3.80;;;;;;;29.53;46.80;100614.63;1723746;81;27485;-76
2021/06/20 09:48:50;;;;;;;8.00;5.60;;;;;;;29.57;46.00;100609.33;1702658;82;25937;-76
2021/06/20 09:51:22;;;;;;;5.58;4.72;;;;;;;29.60;45.44;100606.74;1689486;80;25906;-76
2021/06/20 09:53:51;;;;;;;7.40;4.92;;;;;;;29.68;44.72;100612.09;1745754;81;26544;-77
2021/06/20 09:56:33;;;;;;;4.28;3.85;;;;;;;29.70;45.66;100605.70;1726054;81;26498;-77
2021/06/20 09:59:06;;;;;;;5.03;3.80;;;;;;;29.75;45.96;100606.97;1743704;81;28187;-77
2021/06/20 10:01:42;;;;;;;7.03;4.87;;;;;;;29.83;44.58;100604.86;1754059;80;26285;-76
2021/06/20 10:04:11;;;;;;;5.78;3.30;;;;;;;29.93;45.27;100601.83;1756342;80;25767;-77
2021/06/20 10:06:37;;;;;;;4.55;3.47;;;;;;;29.97;44.58;100593.16;1723038;80;25987;-77
2021/06/20 10:09:06;;;;;;;5.75;5.10;;;;;;;29.99;44.22;100590.07;1778970;78;25837;-76
2021/06/20 10:11:33;;;;;;;4.50;3.60;;;;;;;30.04;44.78;100589.39;1742595;81;27477;-76
2021/06/20 10:14:00;;;;;;;5.08;3.27;;;;;;;30.06;45.14;100574.70;1744039;81;26461;-75
2021/06/20 10:16:37;;;;;;;3.40;3.20;;;;;;;30.08;43.83;100571.05;1737319;81;25779;-76
2021/06/20 10:19:14;;;;;;;6.58;3.90;;;;;;;30.10;43.79;100566.02;1759211;78;26497;-76
2021/06/20 10:21:45;;;;;;;5.67;3.17;;;;;;;30.17;43.47;100568.33;1790052;79;25799;-77
2021/06/20 10:24:16;;;;;;;3.47;3.17;;;;;;;30.17;42.95;100566.39;1738616;81;27587;-77
2021/06/20 10:27:00;;;;;;;3.67;3.00;;;;;;;30.15;42.44;100561.75;1739571;81;25822;-77
2021/06/20 10:29:36;;;;;;;3.42;3.12;;;;;;;30.15;41.93;100554.02;1760204;80;25754;-76
2021/06/20 10:32:22;;;;;;;3.67;3.37;;;;;;;30.15;41.03;100557.61;1804331;77;26965;-76
2021/06/20 10:35:01;;;;;;;5.53;3.98;;;;;;;30.17;42.00;100549.81;1778995;80;25715;-76
2021/06/20 10:37:36;;;;;;;5.75;3.40;;;;;;;30.22;41.03;100540.54;1804628;77;28171;-77
2021/06/20 10:40:29;;;;;;;4.97;4.00;;;;;;;30.22;41.35;100530.31;1757387;80;25898;-76
2021/06/20 10:43:00;;;;;;;3.70;3.10;;;;;;;30.28;41.65;100529.62;1760340;79;25787;-76
2021/06/20 10:45:37;;;;;;;5.28;3.20;;;;;;;30.33;40.96;100523.40;1779994;78;26368;-77
2021/06/20 10:48:21;;;;;;;4.08;3.30;;;;;;;30.26;41.69;100519.45;1766426;79;25744;-77
2021/06/20 10:50:51;;;;;;;8.38;3.40;;;;;;;30.28;41.72;100515.80;1766302;78;28248;-76
2021/06/20 10:53:21;;;;;;;8.10;6.67;;;;;;;30.38;40.92;100514.98;1717748;81;35599;-77
2021/06/20 10:55:52;;;;;;;5.15;4.53;;;;;;;30.45;41.14;100507.59;1780388;80;25794;-76
2021/06/20 10:58:31;;;;;;;8.43;4.03;;;;;;;30.50;41.90;100512.17;1757392;79;25840;-76
2021/06/20 11:01:11;;;;;;;3.98;3.67;;;;;;;30.54;42.08;100513.95;1774273;80;25812;-77
2021/06/20 11:03:41;;;;;;;6.45;5.30;;;;;;;30.64;41.73;100519.20;1800260;77;27392;-76
2021/06/20 11:06:13;;;;;;;6.47;4.25;;;;;;;30.76;41.66;100510.25;1776307;78;26535;-77
2021/06/20 11:08:59;;;;;;;4.42;3.27;;;;;;;30.82;39.51;100511.72;1761735;80;25791;-77
2021/06/20 11:11:32;;;;;;;3.67;3.37;;;;;;;30.82;40.75;100507.58;1787370;77;25871;-76
2021/06/20 11:14:06;;;;;;;5.55;3.50;;;;;;;30.84;40.54;100507.50;1740639;81;25939;-77
2021/06/20 11:16:42;;;;;;;6.15;3.85;;;;;;;30.86;39.77;100494.78;1773599;80;28316;-76
2021/06/20 11:19:22;;;;;;;4.87;3.33;;;;;;;30.88;39.34;100489.16;1758825;80;25954;-77
2021/06/20 11:21:55;;;;;;;3.83;2.90;;;;;;;30.86;39.99;100488.66;1751320;81;25731;-76
2021/06/20 11:24:33;;;;;;;4.15;3.65;;;;;;;30.92;40.12;100485.19;1776410;79;26576;-76
2021/06/20 11:27:16;;;;;;;4.12;3.72;;;;;;;30.99;40.03;100482.73;1728991;81;25840;-76
2021/06/20 11:29:50;;;;;;;4.10;3.60;;;;;;;31.08;40.07;100475.25;1747966;80;27481;-76
2021/06/20 11:32:23;;;;;;;4.20;3.67;;;;;;;31.14;40.17;100473.94;1776882;79;26013;-76